createdAt,value
2023-05-14T00:02:16.252Z,11.00
2023-05-14T00:04:42.975Z,11.50
2023-05-14T00:07:09.881Z,11.70
2023-05-14T00:09:36.629Z,11.52
2023-05-14T00:12:06.533Z,11.63
2023-05-14T00:14:33.280Z,12.02
2023-05-14T00:17:01.641Z,11.18
2023-05-14T00:19:28.371Z,11.93
2023-05-14T00:21:55.049Z,11.57
2023-05-14T00:24:24.161Z,10.95
2023-05-14T00:26:54.739Z,11.55
2023-05-14T00:29:23.199Z,11.60
2023-05-14T00:31:50.038Z,13.10
2023-05-14T00:34:20.621Z,12.43
2023-05-14T00:36:47.710Z,12.70
2023-05-14T00:39:14.714Z,12.38
2023-05-14T00:41:43.745Z,11.82
2023-05-14T00:46:37.091Z,11.65
2023-05-14T00:49:04.021Z,12.95
2023-05-14T00:51:32.149Z,12.52
2023-05-14T00:53:59.122Z,12.57
2023-05-14T00:56:27.412Z,11.32
2023-05-14T00:58:57.300Z,12.30
2023-05-14T01:01:24.120Z,13.38
2023-05-14T01:03:51.238Z,12.30
2023-05-14T01:06:25.765Z,13.00
2023-05-14T01:09:13.996Z,13.45
2023-05-14T01:11:49.039Z,13.48
2023-05-14T01:14:22.014Z,13.20
2023-05-14T01:16:52.355Z,13.07
2023-05-14T01:19:25.939Z,12.73
2023-05-14T01:21:54.094Z,12.48
2023-05-14T01:24:20.858Z,13.27
2023-05-14T01:26:47.629Z,11.80
2023-05-14T01:29:20.036Z,11.73
2023-05-14T01:31:48.824Z,12.80
2023-05-14T01:36:48.508Z,11.57
2023-05-14T01:39:17.486Z,12.57
2023-05-14T01:44:14.721Z,10.82
2023-05-14T01:46:42.707Z,12.90
2023-05-14T01:49:09.455Z,13.33
2023-05-14T01:51:36.633Z,14.30
2023-05-14T01:54:06.255Z,14.13
2023-05-14T01:56:34.363Z,13.60
2023-05-14T01:59:04.290Z,13.60
2023-05-14T02:01:31.333Z,13.73
2023-05-14T02:03:58.098Z,13.15
2023-05-14T02:06:24.910Z,12.85
2023-05-14T02:08:51.657Z,11.13
2023-05-14T02:11:21.260Z,13.65
2023-05-14T02:13:49.368Z,14.00
2023-05-14T02:16:16.128Z,14.47
2023-05-14T02:18:43.093Z,12.60
2023-05-14T02:21:10.061Z,14.85
2023-05-14T02:23:41.531Z,14.80
2023-05-14T02:26:09.303Z,13.30
2023-05-14T02:28:36.064Z,14.13
2023-05-14T02:31:04.293Z,14.60
2023-05-14T02:33:31.108Z,14.45
2023-05-14T02:36:01.058Z,15.15
2023-05-14T02:38:27.874Z,15.23
2023-05-14T02:40:56.409Z,15.48
2023-05-14T02:43:24.841Z,15.68
2023-05-14T02:45:51.607Z,15.20
2023-05-14T02:48:22.635Z,15.07
2023-05-14T02:50:52.836Z,13.67
2023-05-14T02:53:22.697Z,14.57
2023-05-14T02:55:49.426Z,15.75
2023-05-14T02:58:16.228Z,15.38
2023-05-14T03:00:42.956Z,14.57
2023-05-14T03:03:13.152Z,16.80
2023-05-14T03:05:41.766Z,16.20
2023-05-14T03:08:08.560Z,16.40
2023-05-14T03:10:35.349Z,14.82
2023-05-14T03:13:04.683Z,16.23
2023-05-14T03:15:34.184Z,15.75
2023-05-14T03:18:00.958Z,16.88
2023-05-14T03:20:27.951Z,17.50
2023-05-14T03:22:56.169Z,16.58
2023-05-14T03:25:22.901Z,15.35
2023-05-14T03:27:51.037Z,14.77
2023-05-14T03:30:17.908Z,15.90
2023-05-14T03:32:45.232Z,15.93
2023-05-14T03:35:12.040Z,16.00
2023-05-14T03:37:38.815Z,16.85
2023-05-14T03:40:08.634Z,15.23
2023-05-14T03:42:37.931Z,16.23
2023-05-14T03:45:11.193Z,15.88
2023-05-14T03:47:37.953Z,15.25
2023-05-14T03:50:07.560Z,15.60
2023-05-14T03:52:37.124Z,13.77
2023-05-14T03:55:04.269Z,15.35
2023-05-14T03:57:32.405Z,14.60
2023-05-14T03:59:59.208Z,14.67
2023-05-14T04:02:26.089Z,16.95
2023-05-14T04:04:52.983Z,17.27
2023-05-14T04:07:20.921Z,15.77
2023-05-14T04:09:47.660Z,15.88
2023-05-14T04:12:14.374Z,14.75
2023-05-14T04:14:47.876Z,14.90
2023-05-14T04:17:14.597Z,16.48
2023-05-14T04:19:44.395Z,13.48
2023-05-14T04:22:11.154Z,13.95
2023-05-14T04:24:37.909Z,13.98
2023-05-14T04:27:07.834Z,14.30
2023-05-14T04:29:34.579Z,14.02
2023-05-14T04:32:06.000Z,14.27
2023-05-14T04:34:32.890Z,14.70
2023-05-14T04:36:59.637Z,15.52
2023-05-14T04:39:26.418Z,14.00
2023-05-14T04:41:53.247Z,15.10
2023-05-14T04:44:19.988Z,16.60
2023-05-14T04:46:48.601Z,16.40
2023-05-14T04:49:16.665Z,13.68
2023-05-14T04:51:43.476Z,14.73
2023-05-14T04:54:10.311Z,14.48
2023-05-14T04:56:39.400Z,13.88
2023-05-14T04:59:06.172Z,12.98
2023-05-14T05:01:37.737Z,12.70
2023-05-14T05:04:05.062Z,14.23
2023-05-14T05:06:33.220Z,12.80
2023-05-14T05:09:01.979Z,13.30
2023-05-14T05:11:29.091Z,14.85
2023-05-14T05:13:55.938Z,14.85
2023-05-14T05:16:22.821Z,14.15
2023-05-14T05:18:49.775Z,13.82
2023-05-14T05:21:18.961Z,11.32
2023-05-14T05:23:47.267Z,14.05
2023-05-14T05:26:13.991Z,15.15
2023-05-14T05:28:40.751Z,13.93
2023-05-14T05:31:19.066Z,14.63
2023-05-14T05:33:49.380Z,13.45
2023-05-14T05:36:17.790Z,14.73
2023-05-14T05:38:44.567Z,15.65
2023-05-14T05:41:12.656Z,16.08
2023-05-14T05:43:44.518Z,14.35
2023-05-14T05:46:11.717Z,12.05
2023-05-14T05:48:38.503Z,12.95
2023-05-14T05:51:08.424Z,12.27
2023-05-14T05:53:35.216Z,12.27
2023-05-14T05:56:01.961Z,11.80
2023-05-14T05:58:30.157Z,12.70
2023-05-14T06:00:56.928Z,11.40
2023-05-14T06:03:24.049Z,10.68
2023-05-14T06:05:50.992Z,10.43
2023-05-14T06:08:17.937Z,11.23
2023-05-14T06:10:46.920Z,11.27
2023-05-14T06:13:14.369Z,11.20
2023-05-14T06:15:42.451Z,11.70
2023-05-14T06:18:11.435Z,11.38
2023-05-14T06:20:41.035Z,11.23
2023-05-14T06:23:07.809Z,11.02
2023-05-14T06:25:34.876Z,11.57
2023-05-14T06:28:01.649Z,11.70
2023-05-14T06:30:28.442Z,12.07
2023-05-14T06:32:56.645Z,13.13
2023-05-14T06:35:26.527Z,13.02
2023-05-14T06:37:53.246Z,12.23
2023-05-14T06:40:20.318Z,11.55
2023-05-14T06:42:47.105Z,12.23
2023-05-14T06:45:13.869Z,12.00
2023-05-14T06:47:40.644Z,12.02
2023-05-14T06:50:10.910Z,12.25
2023-05-14T06:52:38.404Z,11.00
2023-05-14T06:55:09.745Z,11.02
2023-05-14T06:57:37.696Z,10.52
2023-05-14T07:00:07.425Z,10.10
2023-05-14T07:02:34.336Z,11.00
2023-05-14T07:05:01.130Z,11.02
2023-05-14T07:07:29.267Z,11.25
2023-05-14T07:09:56.028Z,9.73
2023-05-14T07:12:22.875Z,10.38
2023-05-14T07:14:49.908Z,10.70
2023-05-14T07:17:16.790Z,10.50
2023-05-14T07:19:47.598Z,10.85
2023-05-14T07:22:14.384Z,10.57
2023-05-14T07:24:42.946Z,10.75
2023-05-14T07:27:09.737Z,9.85
2023-05-14T07:29:36.510Z,10.13
2023-05-14T07:32:05.904Z,9.45
2023-05-14T07:34:32.735Z,10.07
2023-05-14T07:37:01.534Z,9.68
2023-05-14T07:41:56.537Z,10.02
2023-05-14T07:44:23.305Z,9.82
2023-05-14T07:46:50.208Z,10.38
2023-05-14T07:49:17.053Z,9.40
2023-05-14T07:51:43.802Z,9.25
2023-05-14T07:54:10.728Z,9.48
2023-05-14T07:56:37.544Z,9.98
2023-05-14T07:59:05.676Z,9.77
2023-05-14T08:01:32.482Z,9.48
2023-05-14T08:03:59.327Z,9.45
2023-05-14T08:06:26.182Z,9.23
2023-05-14T08:08:52.956Z,9.45
2023-05-14T08:11:19.763Z,8.18
2023-05-14T08:13:48.673Z,8.77
2023-05-14T08:16:16.831Z,8.57
2023-05-14T08:18:46.237Z,8.70
2023-05-14T08:21:14.273Z,9.60
2023-05-14T08:23:41.090Z,8.15
2023-05-14T08:26:07.881Z,9.10
2023-05-14T08:28:36.232Z,8.98
2023-05-14T08:31:03.053Z,9.50
2023-05-14T08:33:33.484Z,9.02
2023-05-14T08:36:00.190Z,8.90
2023-05-14T08:38:27.235Z,8.70
2023-05-14T08:40:57.788Z,8.57
2023-05-14T08:43:35.786Z,9.43
2023-05-14T08:46:06.116Z,9.30
2023-05-14T08:48:35.256Z,9.13
2023-05-14T08:51:02.582Z,8.73
2023-05-14T08:53:30.157Z,9.55
2023-05-14T08:55:56.949Z,9.40
2023-05-14T08:58:25.388Z,8.50
2023-05-14T09:00:54.048Z,8.98
2023-05-14T09:05:50.926Z,8.05
2023-05-14T09:08:17.924Z,8.23
2023-05-14T09:10:50.867Z,8.07
2023-05-14T09:13:17.695Z,8.18
2023-05-14T09:15:46.194Z,8.02
2023-05-14T09:18:18.117Z,7.35
2023-05-14T09:20:46.681Z,8.20
2023-05-14T09:23:14.896Z,8.20
2023-05-14T09:25:45.302Z,7.65
2023-05-14T09:28:12.184Z,7.82
2023-05-14T09:30:38.963Z,7.90
2023-05-14T09:33:05.747Z,7.43
2023-05-14T09:35:32.684Z,7.93
2023-05-14T09:37:59.483Z,7.60
2023-05-14T09:40:27.794Z,7.75
2023-05-14T09:42:57.093Z,7.43
2023-05-14T09:45:24.021Z,7.43
2023-05-14T09:47:50.911Z,7.63
2023-05-14T09:50:17.755Z,7.45
2023-05-14T09:52:44.493Z,7.55
2023-05-14T09:55:14.062Z,8.02
2023-05-14T09:57:42.494Z,6.80
2023-05-14T10:00:10.373Z,7.80
2023-05-14T10:02:38.433Z,7.97
2023-05-14T10:05:06.896Z,7.15
2023-05-14T10:07:38.726Z,7.45
2023-05-14T10:10:08.642Z,7.50
2023-05-14T10:12:38.646Z,7.35
2023-05-14T10:15:14.864Z,7.55
2023-05-14T10:17:47.915Z,7.47
2023-05-14T10:20:15.760Z,6.75
2023-05-14T10:22:42.741Z,6.90
2023-05-14T10:25:10.801Z,6.45
2023-05-14T10:27:37.933Z,6.97
2023-05-14T10:30:11.548Z,6.32
2023-05-14T10:32:38.914Z,6.53
2023-05-14T10:35:16.949Z,6.65
2023-05-14T10:37:44.822Z,6.97
2023-05-14T10:40:13.027Z,6.30
2023-05-14T10:42:43.463Z,6.57
2023-05-14T10:45:14.307Z,6.50
2023-05-14T10:47:44.292Z,6.45
2023-05-14T10:50:12.766Z,6.32
2023-05-14T10:52:41.532Z,5.70
2023-05-14T10:55:09.210Z,5.70
2023-05-14T10:57:37.891Z,6.20
2023-05-14T11:02:37.487Z,5.40
2023-05-14T11:05:06.573Z,5.68
2023-05-14T11:07:34.914Z,4.93
2023-05-14T11:10:03.621Z,5.18
2023-05-14T11:12:30.814Z,5.35
2023-05-14T11:15:01.665Z,4.97
2023-05-14T11:17:29.983Z,4.80
2023-05-14T11:19:58.970Z,5.28
2023-05-14T11:22:25.971Z,4.80
2023-05-14T11:24:53.109Z,4.85
2023-05-14T11:27:21.775Z,5.15
2023-05-14T11:29:49.460Z,4.95
2023-05-14T11:32:17.833Z,5.18
2023-05-14T11:34:45.999Z,4.72
2023-05-14T11:37:15.896Z,4.63
2023-05-14T11:39:48.347Z,3.83
2023-05-14T11:42:15.348Z,4.55
2023-05-14T11:44:44.226Z,4.28
2023-05-14T11:47:11.456Z,3.85
2023-05-14T11:49:40.810Z,4.22
2023-05-14T11:52:08.814Z,3.83
2023-05-14T11:54:37.193Z,3.97
2023-05-14T11:57:09.535Z,4.43
2023-05-14T11:59:36.930Z,4.30
2023-05-14T12:02:11.073Z,4.30
2023-05-14T12:04:41.336Z,4.20
2023-05-14T12:07:10.053Z,4.47
2023-05-14T12:09:39.945Z,4.80
2023-05-14T12:12:10.826Z,5.53
2023-05-14T12:14:38.650Z,4.97
2023-05-14T12:17:12.011Z,5.18
2023-05-14T12:19:40.944Z,4.82
2023-05-14T12:22:11.728Z,4.82
2023-05-14T12:24:42.923Z,4.72
2023-05-14T12:27:10.496Z,4.15
2023-05-14T12:29:40.813Z,4.28
2023-05-14T12:32:09.335Z,3.92
2023-05-14T12:34:37.562Z,3.90
2023-05-14T12:37:05.140Z,4.20
2023-05-14T12:39:34.079Z,4.53
2023-05-14T12:42:02.374Z,3.78
2023-05-14T12:44:29.237Z,3.70
2023-05-14T12:46:56.113Z,4.00
2023-05-14T12:49:22.941Z,4.10
2023-05-14T12:51:51.256Z,3.83
2023-05-14T12:54:21.396Z,4.22
2023-05-14T12:56:48.210Z,3.38
2023-05-14T12:59:16.333Z,3.50
2023-05-14T13:01:49.218Z,4.22
2023-05-14T13:04:16.087Z,3.92
2023-05-14T13:06:45.662Z,3.80
2023-05-14T13:09:12.459Z,3.45
2023-05-14T13:11:39.215Z,3.22
2023-05-14T13:14:06.056Z,3.38
2023-05-14T13:16:36.065Z,3.50
2023-05-14T13:19:02.926Z,3.40
2023-05-14T13:21:29.742Z,3.08
2023-05-14T13:23:56.450Z,2.85
2023-05-14T13:26:23.365Z,2.92
2023-05-14T13:28:50.244Z,3.25
2023-05-14T13:31:16.983Z,3.47
2023-05-14T13:33:50.758Z,3.00
2023-05-14T13:36:17.518Z,3.30
2023-05-14T13:38:44.704Z,2.92
2023-05-14T13:41:11.725Z,3.45
2023-05-14T13:43:38.534Z,3.20
2023-05-14T13:46:05.929Z,2.75
2023-05-14T13:48:33.163Z,3.10
2023-05-14T13:51:01.250Z,3.33
2023-05-14T13:53:28.228Z,4.40
2023-05-14T13:55:55.003Z,4.55
2023-05-14T13:58:25.251Z,4.57
2023-05-14T14:00:52.340Z,4.28
2023-05-14T14:03:19.213Z,3.95
2023-05-14T14:05:46.275Z,4.13
2023-05-14T14:08:23.546Z,3.80
2023-05-14T14:10:51.521Z,4.20
2023-05-14T14:13:20.170Z,3.83
2023-05-14T14:18:13.526Z,3.83
2023-05-14T14:20:40.299Z,3.60
2023-05-14T14:23:10.046Z,3.47
2023-05-14T14:25:43.196Z,3.85
2023-05-14T14:28:12.842Z,3.40
2023-05-14T14:30:39.646Z,3.80
2023-05-14T14:33:06.553Z,3.50
2023-05-14T14:35:33.431Z,3.60
2023-05-14T14:38:00.354Z,4.22
2023-05-14T14:40:27.237Z,3.80
2023-05-14T14:42:55.302Z,4.15
2023-05-14T14:45:22.250Z,3.97
2023-05-14T14:47:49.687Z,4.80
2023-05-14T14:50:16.542Z,4.15
2023-05-14T14:52:45.900Z,4.03
2023-05-14T14:55:18.726Z,3.85
2023-05-14T14:57:48.419Z,3.55
2023-05-14T15:00:20.212Z,3.20
2023-05-14T15:02:47.087Z,3.80
2023-05-14T15:05:14.387Z,3.78
2023-05-14T15:07:41.166Z,3.28
2023-05-14T15:10:08.729Z,3.55
2023-05-14T15:12:39.628Z,3.45
2023-05-14T15:15:07.770Z,3.50
2023-05-14T15:17:35.910Z,3.50
2023-05-14T15:20:02.692Z,3.50
2023-05-14T15:22:29.496Z,3.83
2023-05-14T15:24:56.257Z,3.80
2023-05-14T15:27:24.186Z,3.30
2023-05-14T15:29:50.940Z,3.78
2023-05-14T15:32:17.656Z,3.30
2023-05-14T15:34:45.747Z,3.08
2023-05-14T15:37:15.425Z,3.97
2023-05-14T15:39:42.165Z,3.60
2023-05-14T15:42:08.916Z,3.70
2023-05-14T15:44:38.869Z,3.60
2023-05-14T15:47:08.810Z,3.25
2023-05-14T15:49:35.577Z,3.10
2023-05-14T15:52:05.110Z,3.47
2023-05-14T15:54:31.940Z,3.00
2023-05-14T15:56:58.854Z,3.15
2023-05-14T15:59:25.838Z,4.00
2023-05-14T16:01:54.239Z,3.58
2023-05-14T16:04:21.052Z,4.28
2023-05-14T16:06:48.129Z,5.55
2023-05-14T16:09:16.243Z,4.20
2023-05-14T16:11:43.033Z,3.90
2023-05-14T16:14:12.846Z,4.13
2023-05-14T16:16:39.772Z,4.18
2023-05-14T16:19:06.791Z,4.38
2023-05-14T16:21:33.598Z,4.40
2023-05-14T16:24:00.378Z,5.22
2023-05-14T16:26:28.506Z,4.50
2023-05-14T16:28:55.262Z,4.85
2023-05-14T16:31:22.123Z,5.15
2023-05-14T16:33:48.973Z,4.90
2023-05-14T16:36:15.885Z,4.70
2023-05-14T16:39:05.441Z,4.75
2023-05-14T16:41:33.293Z,4.78
2023-05-14T16:44:00.032Z,4.68
2023-05-14T16:46:28.934Z,5.20
2023-05-14T16:48:56.147Z,4.72
2023-05-14T16:51:22.981Z,4.70
2023-05-14T16:53:49.826Z,4.97
2023-05-14T16:56:16.660Z,6.47
2023-05-14T16:58:44.746Z,6.32
2023-05-14T17:01:13.675Z,6.15
2023-05-14T17:03:40.947Z,6.20
2023-05-14T17:06:07.786Z,5.35
2023-05-14T17:08:34.528Z,6.07
2023-05-14T17:11:01.705Z,5.13
2023-05-14T17:13:28.510Z,5.60
2023-05-14T17:15:57.343Z,5.55
2023-05-14T17:20:50.751Z,6.32
2023-05-14T17:23:17.509Z,5.60
2023-05-14T17:25:44.326Z,6.10
2023-05-14T17:28:11.101Z,5.60
2023-05-14T17:30:37.849Z,5.10
2023-05-14T17:33:06.144Z,6.20
2023-05-14T17:35:33.023Z,6.47
2023-05-14T17:38:00.621Z,6.53
2023-05-14T17:40:27.538Z,6.60
2023-05-14T17:42:54.641Z,6.13
2023-05-14T17:45:21.640Z,6.60
2023-05-14T17:47:49.323Z,6.38
2023-05-14T17:50:17.764Z,6.05
2023-05-14T17:52:44.722Z,6.50
2023-05-14T17:55:11.532Z,6.07
2023-05-14T17:57:38.388Z,6.53
2023-05-14T18:00:06.468Z,6.80
2023-05-14T18:02:33.256Z,7.35
2023-05-14T18:05:00.059Z,7.45
2023-05-14T18:07:28.501Z,6.38
2023-05-14T18:09:55.294Z,7.43
2023-05-14T18:12:22.314Z,7.40
2023-05-14T18:14:49.066Z,7.97
2023-05-14T18:17:15.939Z,7.25
2023-05-14T18:19:45.117Z,7.30
2023-05-14T18:22:13.929Z,7.10
2023-05-14T18:24:42.316Z,6.80
2023-05-14T18:27:09.135Z,6.78
2023-05-14T18:29:35.859Z,6.32
2023-05-14T18:32:02.692Z,7.30
2023-05-14T18:34:29.759Z,7.60
2023-05-14T18:36:56.483Z,8.23
2023-05-14T18:39:23.244Z,7.75
2023-05-14T18:41:51.416Z,8.98
2023-05-14T18:44:18.253Z,9.00
2023-05-14T18:46:50.271Z,9.20
2023-05-14T18:49:17.176Z,9.77
2023-05-14T18:51:43.984Z,12.27
2023-05-14T18:54:10.820Z,10.10
2023-05-14T18:56:46.911Z,10.52
2023-05-14T18:59:20.968Z,9.93
2023-05-14T19:01:47.792Z,10.48
2023-05-14T19:04:15.374Z,10.80
2023-05-14T19:06:42.562Z,9.93
2023-05-14T19:09:09.628Z,11.27
2023-05-14T19:11:36.443Z,11.38
2023-05-14T19:14:03.207Z,9.30
2023-05-14T19:16:31.515Z,10.98
2023-05-14T19:18:58.427Z,10.43
2023-05-14T19:21:30.235Z,12.25
2023-05-14T19:23:57.393Z,8.90
2023-05-14T19:26:24.264Z,10.27
2023-05-14T19:28:51.042Z,8.93
2023-05-14T19:31:17.925Z,9.50
2023-05-14T19:33:46.180Z,7.85
2023-05-14T19:36:13.005Z,8.77
2023-05-14T19:38:39.739Z,7.75
2023-05-14T19:41:06.558Z,8.35
2023-05-14T19:43:33.308Z,8.02
2023-05-14T19:46:01.654Z,8.32
2023-05-14T19:48:28.577Z,7.30
2023-05-14T19:50:56.753Z,7.72
2023-05-14T19:53:23.620Z,7.68
2023-05-14T19:55:50.360Z,7.85
2023-05-14T19:58:17.086Z,8.50
2023-05-14T20:00:43.948Z,8.30
2023-05-14T20:03:10.938Z,8.02
2023-05-14T20:05:37.789Z,8.38
2023-05-14T20:08:06.033Z,7.90
2023-05-14T20:10:32.794Z,8.20
2023-05-14T20:12:59.556Z,7.68
2023-05-14T20:15:26.810Z,7.72
2023-05-14T20:17:53.682Z,9.43
2023-05-14T20:20:20.771Z,8.57
2023-05-14T20:22:47.664Z,8.23
2023-05-14T20:25:15.774Z,8.55
2023-05-14T20:27:42.717Z,9.33
2023-05-14T20:30:09.869Z,8.77
2023-05-14T20:32:37.094Z,8.82
2023-05-14T20:35:07.577Z,8.98
2023-05-14T20:37:34.446Z,8.70
2023-05-14T20:40:01.974Z,8.70
2023-05-14T20:42:30.095Z,10.38
2023-05-14T20:44:57.820Z,8.43
2023-05-14T20:47:25.650Z,8.23
2023-05-14T20:49:52.467Z,8.65
2023-05-14T20:52:19.353Z,8.57
2023-05-14T20:54:46.171Z,9.20
2023-05-14T20:57:15.151Z,8.45
2023-05-14T21:02:09.938Z,8.43
2023-05-14T21:04:37.060Z,9.82
2023-05-14T21:07:05.157Z,8.93
2023-05-14T21:09:32.092Z,9.87
2023-05-14T21:11:58.910Z,9.18
2023-05-14T21:14:25.715Z,8.50
2023-05-14T21:16:53.867Z,9.90
2023-05-14T21:19:20.641Z,11.38
2023-05-14T21:21:47.417Z,9.40
2023-05-14T21:24:14.336Z,10.00
2023-05-14T21:26:41.120Z,9.85
2023-05-14T21:29:07.851Z,9.13
2023-05-14T21:31:34.674Z,9.82
2023-05-14T21:34:02.791Z,9.90
2023-05-14T21:36:29.582Z,9.33
2023-05-14T21:38:56.324Z,9.63
2023-05-14T21:41:23.066Z,9.55
2023-05-14T21:43:49.809Z,9.23
2023-05-14T21:46:16.644Z,9.40
2023-05-14T21:48:43.557Z,10.20
2023-05-14T21:51:11.687Z,10.35
2023-05-14T21:53:38.489Z,10.57
2023-05-14T21:56:05.813Z,10.30
2023-05-14T21:58:32.610Z,10.20
2023-05-14T22:00:59.376Z,9.70
2023-05-14T22:03:26.171Z,9.77
2023-05-14T22:05:53.053Z,9.77
2023-05-14T22:08:21.152Z,10.45
2023-05-14T22:10:47.913Z,10.93
2023-05-14T22:13:14.705Z,11.52
2023-05-14T22:15:41.632Z,11.23
2023-05-14T22:18:08.480Z,10.82
2023-05-14T22:20:35.341Z,10.73
2023-05-14T22:23:02.071Z,10.70
2023-05-14T22:25:32.504Z,11.52
2023-05-14T22:27:59.234Z,11.38
2023-05-14T22:30:25.986Z,11.30
2023-05-14T22:32:52.809Z,11.20
2023-05-14T22:35:19.620Z,12.13
2023-05-14T22:37:46.489Z,11.75
2023-05-14T22:40:13.646Z,12.18
2023-05-14T22:42:41.691Z,11.57
2023-05-14T22:45:09.454Z,11.27
2023-05-14T22:47:37.123Z,11.05
2023-05-14T22:50:04.290Z,11.02
2023-05-14T22:52:31.041Z,12.00
2023-05-14T22:54:57.779Z,11.77
2023-05-14T22:57:24.557Z,12.85
2023-05-14T22:59:52.645Z,12.57
2023-05-14T23:02:19.396Z,13.10
2023-05-14T23:04:46.218Z,13.25
2023-05-14T23:07:13.006Z,11.52
2023-05-14T23:09:39.754Z,13.30
2023-05-14T23:12:07.327Z,12.30
2023-05-14T23:14:34.100Z,12.23
2023-05-14T23:17:02.265Z,13.27
2023-05-14T23:19:29.131Z,12.55
2023-05-14T23:21:55.858Z,12.30
2023-05-14T23:24:22.587Z,10.85
2023-05-14T23:26:49.341Z,12.68
2023-05-14T23:29:16.076Z,11.73
2023-05-14T23:31:42.910Z,12.25
2023-05-14T23:34:11.053Z,12.80
2023-05-14T23:36:37.903Z,11.43
2023-05-14T23:39:04.640Z,11.60
2023-05-14T23:41:31.394Z,9.38
2023-05-14T23:43:58.198Z,10.82
2023-05-14T23:46:25.037Z,12.25
2023-05-14T23:48:51.812Z,11.48
2023-05-14T23:51:19.877Z,11.15
2023-05-14T23:53:46.598Z,11.10
2023-05-14T23:56:13.357Z,10.52
2023-05-14T23:58:40.150Z,11.60
